createdAt,value
2023-10-18T00:00:23.410Z,0.00
2023-10-18T00:01:23.471Z,0.00
2023-10-18T00:02:23.368Z,0.00
2023-10-18T00:03:23.502Z,0.00
2023-10-18T00:04:23.381Z,0.00
2023-10-18T00:05:23.370Z,0.00
2023-10-18T00:06:23.311Z,0.00
2023-10-18T00:07:23.280Z,0.00
2023-10-18T00:08:23.284Z,0.00
2023-10-18T00:09:23.274Z,0.00
2023-10-18T00:10:23.244Z,0.00
2023-10-18T00:11:23.226Z,0.00
2023-10-18T00:12:23.228Z,0.00
2023-10-18T00:13:23.235Z,0.00
2023-10-18T00:14:23.188Z,0.00
2023-10-18T00:15:23.177Z,0.00
2023-10-18T00:16:23.165Z,0.00
2023-10-18T00:17:23.173Z,0.00
2023-10-18T00:18:23.264Z,0.00
2023-10-18T00:19:23.137Z,0.00
2023-10-18T00:20:23.126Z,0.00
2023-10-18T00:21:23.097Z,0.00
2023-10-18T00:22:23.110Z,0.00
2023-10-18T00:23:23.575Z,0.00
2023-10-18T00:24:23.077Z,0.00
2023-10-18T00:25:23.058Z,0.00
2023-10-18T00:26:23.053Z,0.00
2023-10-18T00:27:23.037Z,0.00
2023-10-18T00:28:23.024Z,0.00
2023-10-18T00:29:23.007Z,0.00
2023-10-18T00:30:23.016Z,0.00
2023-10-18T00:31:23.077Z,0.00
2023-10-18T00:32:22.980Z,0.00
2023-10-18T00:33:22.941Z,0.00
2023-10-18T00:34:22.933Z,0.00
2023-10-18T00:35:23.674Z,0.00
2023-10-18T00:36:22.921Z,0.00
2023-10-18T00:37:22.887Z,0.00
2023-10-18T00:38:22.886Z,0.00
2023-10-18T00:39:22.867Z,0.00
2023-10-18T00:40:22.883Z,0.00
2023-10-18T00:41:23.026Z,0.00
2023-10-18T00:42:22.836Z,0.00
2023-10-18T00:43:22.919Z,0.00
2023-10-18T00:44:22.839Z,0.00
2023-10-18T00:45:22.798Z,0.00
2023-10-18T00:46:22.919Z,0.00
2023-10-18T00:47:22.807Z,0.00
2023-10-18T00:48:22.774Z,0.00
2023-10-18T00:49:22.738Z,0.00
2023-10-18T00:50:22.762Z,0.00
2023-10-18T00:51:22.706Z,0.00
2023-10-18T00:52:22.714Z,0.00
2023-10-18T00:53:22.684Z,0.00
2023-10-18T00:54:22.686Z,0.00
2023-10-18T00:55:22.685Z,0.00
2023-10-18T00:56:22.649Z,0.00
2023-10-18T00:57:29.438Z,0.00
2023-10-18T00:58:23.830Z,0.00
2023-10-18T00:59:22.646Z,0.00
2023-10-18T01:00:22.612Z,0.00
2023-10-18T01:01:22.650Z,0.00
2023-10-18T01:02:22.624Z,0.00
2023-10-18T01:03:22.624Z,0.00
2023-10-18T01:04:22.668Z,0.00
2023-10-18T01:05:22.527Z,0.00
2023-10-18T01:06:22.693Z,0.00
2023-10-18T01:07:22.560Z,0.00
2023-10-18T01:08:22.520Z,0.00
2023-10-18T01:09:22.488Z,0.00
2023-10-18T01:10:22.470Z,0.00
2023-10-18T01:11:22.516Z,0.00
2023-10-18T01:12:22.449Z,0.00
2023-10-18T01:13:22.490Z,0.00
2023-10-18T01:14:22.410Z,0.00
2023-10-18T01:15:22.400Z,0.00
2023-10-18T01:16:22.466Z,0.00
2023-10-18T01:17:22.497Z,0.00
2023-10-18T01:18:22.369Z,0.00
2023-10-18T01:19:22.409Z,0.00
2023-10-18T01:20:22.346Z,0.00
2023-10-18T01:21:22.328Z,0.00
2023-10-18T01:22:22.335Z,0.00
2023-10-18T01:23:22.328Z,0.00
2023-10-18T01:24:22.297Z,0.00
2023-10-18T01:25:22.268Z,0.00
2023-10-18T01:26:22.305Z,0.00
2023-10-18T01:27:22.276Z,0.00
2023-10-18T01:28:22.259Z,0.00
2023-10-18T01:29:24.728Z,0.00
2023-10-18T01:30:22.206Z,0.00
2023-10-18T01:31:22.410Z,0.00
2023-10-18T01:32:22.196Z,0.00
2023-10-18T01:33:22.163Z,0.00
2023-10-18T01:34:22.234Z,0.00
2023-10-18T01:35:22.137Z,0.00
2023-10-18T01:36:22.755Z,0.00
2023-10-18T01:37:22.132Z,0.00
2023-10-18T01:38:22.104Z,0.00
2023-10-18T01:39:22.341Z,0.00
2023-10-18T01:40:22.099Z,0.00
2023-10-18T01:41:22.087Z,0.00
2023-10-18T01:42:22.197Z,0.00
2023-10-18T01:43:22.182Z,0.00
2023-10-18T01:44:22.185Z,0.00
2023-10-18T01:45:22.035Z,0.00
2023-10-18T01:46:22.097Z,0.00
2023-10-18T01:47:22.015Z,0.00
2023-10-18T01:48:22.011Z,0.00
2023-10-18T01:49:21.977Z,0.00
2023-10-18T01:50:21.960Z,0.00
2023-10-18T01:51:21.935Z,0.00
2023-10-18T01:52:21.927Z,0.00
2023-10-18T01:53:22.001Z,0.00
2023-10-18T01:54:21.902Z,0.00
2023-10-18T01:55:21.955Z,0.00
2023-10-18T01:56:21.915Z,0.00
2023-10-18T01:57:21.858Z,0.00
2023-10-18T01:58:21.863Z,0.00
2023-10-18T01:59:21.839Z,0.00
2023-10-18T02:00:21.824Z,0.00
2023-10-18T02:01:21.888Z,0.00
2023-10-18T02:02:21.847Z,0.00
2023-10-18T02:03:21.924Z,0.00
2023-10-18T02:04:27.669Z,0.00
2023-10-18T02:05:22.751Z,0.00
2023-10-18T02:06:22.253Z,0.00
2023-10-18T02:07:21.728Z,0.00
2023-10-18T02:08:21.734Z,0.00
2023-10-18T02:09:21.721Z,0.00
2023-10-18T02:10:21.701Z,0.00
2023-10-18T02:11:21.672Z,0.00
2023-10-18T02:12:21.783Z,0.00
2023-10-18T02:13:21.657Z,0.00
2023-10-18T02:14:21.651Z,0.00
2023-10-18T02:15:21.625Z,0.00
2023-10-18T02:16:21.682Z,0.00
2023-10-18T02:17:21.653Z,0.00
2023-10-18T02:18:21.661Z,0.00
2023-10-18T02:19:21.621Z,0.00
2023-10-18T02:20:21.560Z,0.00
2023-10-18T02:21:21.562Z,0.00
2023-10-18T02:22:21.568Z,0.00
2023-10-18T02:23:21.560Z,0.00
2023-10-18T02:24:21.518Z,0.00
2023-10-18T02:25:21.490Z,0.00
2023-10-18T02:26:21.570Z,0.00
2023-10-18T02:27:21.752Z,0.00
2023-10-18T02:28:21.461Z,0.00
2023-10-18T02:29:21.460Z,0.00
2023-10-18T02:30:21.435Z,0.00
2023-10-18T02:31:21.459Z,0.00
2023-10-18T02:32:21.429Z,0.00
2023-10-18T02:33:21.386Z,0.00
2023-10-18T02:34:29.677Z,0.00
2023-10-18T02:35:22.377Z,0.00
2023-10-18T02:36:21.366Z,0.00
2023-10-18T02:37:21.347Z,0.00
2023-10-18T02:38:21.336Z,0.00
2023-10-18T02:39:21.314Z,0.00
2023-10-18T02:40:21.340Z,0.00
2023-10-18T02:41:21.288Z,0.00
2023-10-18T02:42:21.292Z,0.00
2023-10-18T02:43:21.256Z,0.00
2023-10-18T02:44:21.254Z,0.00
2023-10-18T02:45:21.252Z,0.00
2023-10-18T02:46:21.346Z,0.00
2023-10-18T02:47:21.196Z,0.00
2023-10-18T02:48:21.198Z,0.00
2023-10-18T02:49:21.225Z,0.00
2023-10-18T02:50:21.189Z,0.00
2023-10-18T02:51:21.177Z,0.00
2023-10-18T02:52:21.920Z,0.00
2023-10-18T02:53:21.115Z,0.00
2023-10-18T02:54:21.121Z,0.00
2023-10-18T02:55:21.161Z,0.00
2023-10-18T02:56:21.081Z,0.00
2023-10-18T02:57:21.078Z,0.00
2023-10-18T02:58:21.169Z,0.00
2023-10-18T02:59:21.036Z,0.00
2023-10-18T03:00:21.055Z,0.00
2023-10-18T03:01:21.119Z,0.00
2023-10-18T03:02:21.013Z,0.00
2023-10-18T03:03:21.011Z,0.00
2023-10-18T03:04:21.099Z,0.00
2023-10-18T03:05:20.969Z,0.00
2023-10-18T03:06:20.955Z,0.00
2023-10-18T03:07:21.010Z,0.00
2023-10-18T03:08:20.944Z,0.00
2023-10-18T03:09:20.916Z,0.00
2023-10-18T03:10:20.956Z,0.00
2023-10-18T03:11:20.884Z,0.00
2023-10-18T03:12:20.874Z,0.00
2023-10-18T03:13:20.873Z,0.00
2023-10-18T03:14:20.872Z,0.00
2023-10-18T03:15:20.824Z,0.00
2023-10-18T03:16:20.868Z,0.00
2023-10-18T03:17:20.902Z,0.00
2023-10-18T03:18:20.850Z,0.00
2023-10-18T03:19:20.839Z,0.00
2023-10-18T03:20:20.801Z,0.00
2023-10-18T03:21:20.779Z,0.00
2023-10-18T03:22:20.846Z,0.00
2023-10-18T03:23:20.733Z,0.00
2023-10-18T03:24:20.755Z,0.00
2023-10-18T03:25:20.791Z,0.00
2023-10-18T03:26:20.694Z,0.00
2023-10-18T03:27:20.702Z,0.00
2023-10-18T03:28:20.785Z,0.00
2023-10-18T03:29:20.657Z,0.00
2023-10-18T03:30:20.639Z,0.00
2023-10-18T03:31:20.731Z,0.00
2023-10-18T03:32:20.644Z,0.00
2023-10-18T03:33:20.645Z,0.00
2023-10-18T03:34:20.619Z,0.00
2023-10-18T03:35:20.573Z,0.00
2023-10-18T03:36:21.405Z,0.00
2023-10-18T03:37:20.621Z,0.00
2023-10-18T03:38:20.538Z,0.00
2023-10-18T03:39:20.519Z,0.00
2023-10-18T03:40:20.586Z,0.00
2023-10-18T03:41:20.509Z,0.00
2023-10-18T03:42:20.541Z,0.00
2023-10-18T03:43:20.502Z,0.00
2023-10-18T03:44:20.476Z,0.00
2023-10-18T03:45:20.456Z,0.00
2023-10-18T03:46:20.618Z,0.00
2023-10-18T03:47:20.480Z,0.00
2023-10-18T03:48:20.411Z,0.00
2023-10-18T03:49:20.470Z,0.00
2023-10-18T03:50:20.401Z,0.00
2023-10-18T03:51:24.883Z,0.00
2023-10-18T03:52:20.390Z,0.00
2023-10-18T03:53:20.346Z,0.00
2023-10-18T03:54:20.331Z,0.00
2023-10-18T03:55:20.334Z,0.00
2023-10-18T03:56:20.330Z,0.00
2023-10-18T03:57:20.315Z,0.00
2023-10-18T03:58:20.311Z,0.00
2023-10-18T03:59:20.292Z,0.00
2023-10-18T04:00:20.260Z,0.00
2023-10-18T04:01:20.277Z,0.00
2023-10-18T04:02:20.229Z,0.00
2023-10-18T04:03:20.256Z,0.00
2023-10-18T04:04:20.520Z,0.00
2023-10-18T04:05:20.200Z,0.00
2023-10-18T04:06:20.160Z,0.00
2023-10-18T04:07:20.317Z,0.00
2023-10-18T04:08:20.161Z,0.00
2023-10-18T04:09:20.162Z,0.00
2023-10-18T04:10:20.173Z,0.00
2023-10-18T04:11:20.103Z,0.00
2023-10-18T04:12:20.082Z,0.00
2023-10-18T04:13:20.264Z,0.00
2023-10-18T04:14:20.065Z,0.00
2023-10-18T04:15:20.049Z,0.00
2023-10-18T04:16:20.127Z,0.00
2023-10-18T04:17:20.018Z,0.00
2023-10-18T04:18:20.053Z,0.00
2023-10-18T04:19:20.152Z,0.00
2023-10-18T04:20:20.032Z,0.00
2023-10-18T04:21:19.978Z,0.00
2023-10-18T04:22:20.015Z,0.00
2023-10-18T04:23:19.956Z,0.00
2023-10-18T04:24:19.922Z,0.00
2023-10-18T04:25:19.952Z,0.00
2023-10-18T04:26:20.571Z,0.00
2023-10-18T04:27:19.925Z,0.00
2023-10-18T04:28:19.935Z,0.00
2023-10-18T04:29:19.862Z,0.00
2023-10-18T04:30:19.912Z,0.00
2023-10-18T04:31:19.889Z,0.00
2023-10-18T04:32:19.903Z,0.00
2023-10-18T04:33:19.921Z,0.00
2023-10-18T04:34:19.901Z,0.00
2023-10-18T04:35:19.788Z,0.00
2023-10-18T04:36:19.793Z,0.00
2023-10-18T04:37:19.786Z,0.00
2023-10-18T04:38:19.755Z,0.00
2023-10-18T04:39:19.741Z,0.00
2023-10-18T04:40:19.775Z,0.00
2023-10-18T04:41:19.718Z,0.00
2023-10-18T04:42:19.726Z,0.00
2023-10-18T04:43:19.751Z,0.00
2023-10-18T04:44:19.681Z,0.00
2023-10-18T04:45:19.713Z,0.00
2023-10-18T04:46:19.754Z,0.00
2023-10-18T04:47:19.653Z,0.00
2023-10-18T04:48:19.624Z,0.00
2023-10-18T04:49:19.722Z,0.00
2023-10-18T04:50:19.603Z,0.00
2023-10-18T04:51:19.582Z,0.00
2023-10-18T04:52:19.608Z,0.00
2023-10-18T04:53:19.560Z,0.00
2023-10-18T04:54:19.822Z,0.00
2023-10-18T04:55:19.567Z,0.00
2023-10-18T04:56:19.536Z,0.00
2023-10-18T04:57:19.494Z,0.00
2023-10-18T04:58:19.501Z,0.00
2023-10-18T04:59:19.562Z,0.00
2023-10-18T05:00:19.482Z,0.00
2023-10-18T05:01:19.527Z,0.00
2023-10-18T05:02:19.441Z,0.00
2023-10-18T05:03:19.501Z,0.00
2023-10-18T05:04:19.421Z,4.00
2023-10-18T05:05:19.433Z,4.00
2023-10-18T05:06:19.390Z,0.00
2023-10-18T05:07:19.426Z,0.00
2023-10-18T05:08:19.347Z,4.00
2023-10-18T05:09:19.359Z,4.00
2023-10-18T05:10:19.421Z,0.00
2023-10-18T05:11:19.342Z,4.00
2023-10-18T05:12:19.320Z,0.00
2023-10-18T05:13:19.325Z,4.00
2023-10-18T05:14:19.338Z,4.00
2023-10-18T05:15:19.280Z,4.00
2023-10-18T05:16:19.388Z,8.00
2023-10-18T05:17:19.265Z,8.00
2023-10-18T05:18:19.258Z,8.00
2023-10-18T05:19:23.245Z,12.00
2023-10-18T05:20:19.206Z,12.00
2023-10-18T05:21:19.224Z,16.00
2023-10-18T05:22:19.222Z,20.00
2023-10-18T05:23:19.186Z,24.00
2023-10-18T05:24:19.160Z,28.00
2023-10-18T05:25:19.219Z,36.00
2023-10-18T05:26:19.143Z,40.00
2023-10-18T05:27:19.120Z,48.00
2023-10-18T05:28:19.145Z,56.00
2023-10-18T05:29:19.125Z,64.00
2023-10-18T05:30:19.094Z,68.00
2023-10-18T05:31:19.116Z,76.00
2023-10-18T05:32:19.049Z,80.00
2023-10-18T05:33:19.084Z,88.00
2023-10-18T05:34:19.153Z,100.00
2023-10-18T05:35:19.020Z,112.00
2023-10-18T05:36:19.015Z,120.00
2023-10-18T05:37:19.094Z,132.00
2023-10-18T05:38:18.976Z,136.00
2023-10-18T05:39:18.982Z,140.00
2023-10-18T05:40:18.983Z,156.00
2023-10-18T05:41:18.945Z,176.00
2023-10-18T05:42:18.932Z,192.00
2023-10-18T05:43:18.941Z,216.00
2023-10-18T05:44:19.000Z,240.00
2023-10-18T05:45:18.899Z,268.00
2023-10-18T05:46:18.978Z,300.00
2023-10-18T05:47:18.876Z,332.00
2023-10-18T05:48:18.855Z,364.00
2023-10-18T05:49:18.859Z,392.00
2023-10-18T05:50:18.810Z,428.00
2023-10-18T05:51:31.011Z,464.00
2023-10-18T05:52:19.859Z,504.00
2023-10-18T05:53:18.790Z,524.00
2023-10-18T05:54:18.759Z,564.00
2023-10-18T05:55:18.870Z,600.00
2023-10-18T05:56:18.751Z,628.00
2023-10-18T05:57:18.728Z,648.00
2023-10-18T05:58:18.800Z,664.00
2023-10-18T05:59:18.712Z,692.00
2023-10-18T06:00:18.729Z,732.00
2023-10-18T06:01:18.766Z,760.00
2023-10-18T06:02:18.773Z,784.00
2023-10-18T06:03:18.737Z,812.00
2023-10-18T06:04:18.736Z,852.00
2023-10-18T06:05:18.670Z,880.00
2023-10-18T06:06:18.628Z,908.00
2023-10-18T06:07:19.853Z,932.00
2023-10-18T06:08:18.594Z,960.00
2023-10-18T06:09:18.578Z,992.00
2023-10-18T06:10:18.596Z,1024.00
2023-10-18T06:11:18.564Z,1048.00
2023-10-18T06:12:18.536Z,1084.00
2023-10-18T06:13:18.561Z,1120.00
2023-10-18T06:14:18.513Z,1168.00
2023-10-18T06:15:18.508Z,1212.00
2023-10-18T06:16:18.563Z,1268.00
2023-10-18T06:17:18.496Z,1296.00
2023-10-18T06:18:18.462Z,1320.00
2023-10-18T06:19:18.496Z,1396.00
2023-10-18T06:20:18.435Z,1436.00
2023-10-18T06:21:18.433Z,1484.00
2023-10-18T06:22:18.441Z,1556.00
2023-10-18T06:23:18.407Z,1580.00
2023-10-18T06:24:18.380Z,1624.00
2023-10-18T06:25:18.439Z,1684.00
2023-10-18T06:26:18.338Z,1700.00
2023-10-18T06:27:18.373Z,1704.00
2023-10-18T06:28:18.376Z,1728.00
2023-10-18T06:29:18.310Z,1744.00
2023-10-18T06:30:18.292Z,1776.00
2023-10-18T06:31:19.578Z,1832.00
2023-10-18T06:32:18.311Z,1884.00
2023-10-18T06:33:18.284Z,1912.00
2023-10-18T06:34:18.297Z,1996.00
2023-10-18T06:35:18.254Z,2076.00
2023-10-18T06:36:18.237Z,2112.00
2023-10-18T06:37:18.270Z,2184.00
2023-10-18T06:38:18.225Z,2188.00
2023-10-18T06:39:18.181Z,2248.00
2023-10-18T06:40:18.226Z,2312.00
2023-10-18T06:41:18.176Z,2356.00
2023-10-18T06:42:18.152Z,2308.00
2023-10-18T06:43:18.186Z,2200.00
2023-10-18T06:44:18.134Z,2192.00
2023-10-18T06:45:18.108Z,2232.00
2023-10-18T06:46:18.143Z,2276.00
2023-10-18T06:47:18.111Z,2368.00
2023-10-18T06:48:18.069Z,2412.00
2023-10-18T06:49:18.091Z,2408.00
2023-10-18T06:50:19.028Z,2524.00
2023-10-18T06:51:18.058Z,2556.00
2023-10-18T06:52:19.869Z,2672.00
2023-10-18T06:53:18.135Z,2716.00
2023-10-18T06:54:17.987Z,2748.00
2023-10-18T06:55:18.025Z,2776.00
2023-10-18T06:56:17.972Z,2804.00
2023-10-18T06:57:17.976Z,2868.00
2023-10-18T06:58:17.988Z,3040.00
2023-10-18T06:59:17.932Z,3232.00
2023-10-18T07:00:17.946Z,3724.00
2023-10-18T07:01:17.943Z,4436.00
2023-10-18T07:02:17.943Z,3784.00
2023-10-18T07:03:17.984Z,3684.00
2023-10-18T07:04:17.857Z,4116.00
2023-10-18T07:05:17.858Z,4796.00
2023-10-18T07:06:17.853Z,6776.00
2023-10-18T07:07:17.859Z,9856.00
2023-10-18T07:08:17.863Z,7968.00
2023-10-18T07:09:17.812Z,7840.00
2023-10-18T07:10:17.815Z,11684.00
2023-10-18T07:11:23.930Z,10396.00
2023-10-18T07:12:18.779Z,6296.00
2023-10-18T07:13:17.780Z,6552.00
2023-10-18T07:14:17.740Z,11500.00
2023-10-18T07:15:17.781Z,10380.00
2023-10-18T07:16:18.440Z,6968.00
2023-10-18T07:17:17.765Z,5704.00
2023-10-18T07:18:17.664Z,7796.00
2023-10-18T07:19:17.702Z,9816.00
2023-10-18T07:20:17.661Z,13696.00
2023-10-18T07:21:17.651Z,11860.00
2023-10-18T07:22:17.671Z,10080.00
2023-10-18T07:23:17.618Z,11816.00
2023-10-18T07:24:17.598Z,11240.00
2023-10-18T07:25:17.656Z,6892.00
2023-10-18T07:26:17.621Z,6012.00
2023-10-18T07:27:17.579Z,8132.00
2023-10-18T07:28:17.579Z,8136.00
2023-10-18T07:29:17.547Z,9608.00
2023-10-18T07:30:18.258Z,8848.00
2023-10-18T07:31:18.105Z,14224.00
2023-10-18T07:32:17.523Z,13236.00
2023-10-18T07:33:17.532Z,8020.00
2023-10-18T07:34:17.525Z,6352.00
2023-10-18T07:35:17.473Z,8124.00
2023-10-18T07:36:17.992Z,12916.00
2023-10-18T07:37:21.022Z,16352.00
2023-10-18T07:38:19.117Z,7576.00
2023-10-18T07:39:17.416Z,6232.00
2023-10-18T07:40:17.727Z,10220.00
2023-10-18T07:41:17.372Z,12492.00
2023-10-18T07:42:17.378Z,12696.00
2023-10-18T07:43:17.410Z,9204.00
2023-10-18T07:44:17.350Z,7784.00
2023-10-18T07:45:17.361Z,10468.00
2023-10-18T07:46:17.347Z,12848.00
2023-10-18T07:47:17.294Z,19008.00
2023-10-18T07:48:17.312Z,18848.00
2023-10-18T07:49:17.379Z,18208.00
2023-10-18T07:50:17.266Z,16160.00
2023-10-18T07:51:17.261Z,19232.00
2023-10-18T07:52:17.264Z,15136.00
2023-10-18T07:53:17.209Z,13920.00
2023-10-18T07:54:17.202Z,24672.00
2023-10-18T07:55:17.282Z,30400.00
2023-10-18T07:56:17.196Z,20512.00
2023-10-18T07:57:17.250Z,14560.00
2023-10-18T07:58:17.162Z,14624.00
2023-10-18T07:59:17.150Z,16064.00
2023-10-18T08:00:17.149Z,16032.00
2023-10-18T08:01:17.165Z,22176.00
2023-10-18T08:02:17.116Z,24576.00
2023-10-18T08:03:17.204Z,18624.00
2023-10-18T08:04:17.174Z,14400.00
2023-10-18T08:05:17.206Z,16192.00
2023-10-18T08:06:17.459Z,15392.00
2023-10-18T08:07:17.147Z,14304.00
2023-10-18T08:08:17.012Z,16320.00
2023-10-18T08:09:17.041Z,13308.00
2023-10-18T08:10:17.032Z,11564.00
2023-10-18T08:11:16.998Z,16128.00
2023-10-18T08:12:16.957Z,15968.00
2023-10-18T08:13:16.968Z,14656.00
2023-10-18T08:14:16.938Z,15424.00
2023-10-18T08:15:16.941Z,15968.00
2023-10-18T08:16:16.979Z,15328.00
2023-10-18T08:17:16.979Z,20320.00
2023-10-18T08:18:16.897Z,22944.00
2023-10-18T08:19:16.910Z,16736.00
2023-10-18T08:20:16.873Z,16096.00
2023-10-18T08:21:16.842Z,17280.00
2023-10-18T08:22:16.864Z,16864.00
2023-10-18T08:23:16.818Z,19872.00
2023-10-18T08:24:16.815Z,17248.00
2023-10-18T08:25:16.815Z,12268.00
2023-10-18T08:26:16.781Z,15200.00
2023-10-18T08:27:16.780Z,15008.00
2023-10-18T08:28:16.804Z,14656.00
2023-10-18T08:29:16.761Z,18176.00
2023-10-18T08:30:16.737Z,13856.00
2023-10-18T08:31:16.915Z,14752.00
2023-10-18T08:32:16.737Z,16896.00
2023-10-18T08:33:16.727Z,14624.00
2023-10-18T08:34:16.810Z,14784.00
2023-10-18T08:35:16.661Z,13120.00
2023-10-18T08:36:16.665Z,13664.00
2023-10-18T08:37:16.649Z,15552.00
2023-10-18T08:38:16.628Z,11808.00
2023-10-18T08:39:16.601Z,11348.00
2023-10-18T08:40:16.656Z,10548.00
2023-10-18T08:41:16.619Z,11132.00
2023-10-18T08:42:16.604Z,11628.00
2023-10-18T08:43:16.624Z,10320.00
2023-10-18T08:44:16.550Z,11212.00
2023-10-18T08:45:16.533Z,11564.00
2023-10-18T08:46:16.593Z,12864.00
2023-10-18T08:47:18.479Z,10436.00
2023-10-18T08:48:16.541Z,9244.00
2023-10-18T08:49:16.526Z,9748.00
2023-10-18T08:50:16.453Z,10200.00
2023-10-18T08:51:16.493Z,11856.00
2023-10-18T08:52:16.468Z,7760.00
2023-10-18T08:53:16.432Z,6140.00
2023-10-18T08:54:16.438Z,5740.00
2023-10-18T08:55:16.451Z,5204.00
2023-10-18T08:56:16.380Z,5056.00
2023-10-18T08:57:16.378Z,4932.00
2023-10-18T08:58:16.392Z,4912.00
2023-10-18T08:59:16.340Z,4592.00
2023-10-18T09:00:16.331Z,4456.00
2023-10-18T09:01:16.402Z,4620.00
2023-10-18T09:02:16.356Z,4724.00
2023-10-18T09:03:16.395Z,4720.00
2023-10-18T09:04:16.339Z,4772.00
2023-10-18T09:05:16.254Z,4656.00
2023-10-18T09:06:16.273Z,4556.00
2023-10-18T09:07:16.237Z,4468.00
2023-10-18T09:08:16.251Z,4456.00
2023-10-18T09:09:16.204Z,4172.00
2023-10-18T09:10:16.254Z,4132.00
2023-10-18T09:11:16.246Z,4148.00
2023-10-18T09:12:16.154Z,4192.00
2023-10-18T09:13:19.347Z,4192.00
2023-10-18T09:14:16.167Z,4244.00
2023-10-18T09:15:16.124Z,3920.00
2023-10-18T09:16:16.147Z,3996.00
2023-10-18T09:17:16.296Z,3828.00
2023-10-18T09:18:16.133Z,3856.00
2023-10-18T09:19:16.089Z,3856.00
2023-10-18T09:20:16.082Z,3752.00
2023-10-18T09:21:16.065Z,3740.00
2023-10-18T09:22:16.036Z,3776.00
2023-10-18T09:23:16.018Z,3772.00
2023-10-18T09:24:15.999Z,3716.00
2023-10-18T09:25:16.029Z,3756.00
2023-10-18T09:26:15.971Z,3656.00
2023-10-18T09:27:15.945Z,3760.00
2023-10-18T09:28:15.963Z,3628.00
2023-10-18T09:29:16.006Z,3656.00
2023-10-18T09:30:15.943Z,3636.00
2023-10-18T09:31:16.922Z,3660.00
2023-10-18T09:32:15.988Z,3628.00
2023-10-18T09:33:15.882Z,3628.00
2023-10-18T09:34:15.879Z,3512.00
2023-10-18T09:35:15.847Z,3420.00
2023-10-18T09:36:15.851Z,3480.00
2023-10-18T09:37:15.880Z,3404.00
2023-10-18T09:38:15.802Z,3412.00
2023-10-18T09:39:15.818Z,3488.00
2023-10-18T09:40:15.799Z,3456.00
2023-10-18T09:41:15.758Z,3460.00
2023-10-18T09:42:15.755Z,3408.00
2023-10-18T09:43:15.744Z,3376.00
2023-10-18T09:44:15.741Z,3344.00
2023-10-18T09:45:15.711Z,3296.00
2023-10-18T09:46:15.780Z,3296.00
2023-10-18T09:47:15.691Z,3376.00
2023-10-18T09:48:15.677Z,3400.00
2023-10-18T09:49:15.731Z,3348.00
2023-10-18T09:50:15.647Z,3256.00
2023-10-18T09:51:15.633Z,3284.00
2023-10-18T09:52:15.671Z,3176.00
2023-10-18T09:53:15.620Z,3152.00
2023-10-18T09:54:15.599Z,3192.00
2023-10-18T09:55:15.651Z,3256.00
2023-10-18T09:56:15.580Z,3208.00
2023-10-18T09:57:16.046Z,3276.00
2023-10-18T09:58:15.657Z,3156.00
2023-10-18T09:59:15.557Z,3196.00
2023-10-18T10:00:15.548Z,3180.00
2023-10-18T10:01:15.634Z,3108.00
2023-10-18T10:02:15.707Z,3088.00
2023-10-18T10:03:15.684Z,3140.00
2023-10-18T10:04:16.508Z,3112.00
2023-10-18T10:05:15.438Z,3068.00
2023-10-18T10:06:15.463Z,3128.00
2023-10-18T10:07:15.506Z,3080.00
2023-10-18T10:08:15.393Z,3108.00
2023-10-18T10:09:15.400Z,3104.00
2023-10-18T10:10:15.453Z,3088.00
2023-10-18T10:11:15.408Z,3044.00
2023-10-18T10:12:15.364Z,3052.00
2023-10-18T10:13:15.355Z,3036.00
2023-10-18T10:14:15.336Z,3000.00
2023-10-18T10:15:15.309Z,2972.00
2023-10-18T10:16:15.362Z,2964.00
2023-10-18T10:17:15.313Z,2984.00
2023-10-18T10:18:16.935Z,3012.00
2023-10-18T10:19:15.291Z,3028.00
2023-10-18T10:20:15.280Z,2936.00
2023-10-18T10:21:15.265Z,2992.00
2023-10-18T10:22:15.232Z,2924.00
2023-10-18T10:23:15.235Z,2944.00
2023-10-18T10:24:15.192Z,2988.00
2023-10-18T10:25:43.891Z,2908.00
2023-10-18T10:26:29.275Z,2872.00
2023-10-18T10:27:16.154Z,2924.00
2023-10-18T10:28:15.163Z,2912.00
2023-10-18T10:29:15.124Z,2948.00
2023-10-18T10:30:15.146Z,2920.00
2023-10-18T10:31:15.210Z,2932.00
2023-10-18T10:32:15.094Z,2956.00
2023-10-18T10:33:15.067Z,2920.00
2023-10-18T10:34:15.091Z,2980.00
2023-10-18T10:35:15.108Z,3028.00
2023-10-18T10:36:15.044Z,2984.00
2023-10-18T10:37:15.020Z,2992.00
2023-10-18T10:38:16.579Z,2804.00
2023-10-18T10:39:15.001Z,2864.00
2023-10-18T10:40:15.015Z,2968.00
2023-10-18T10:41:14.967Z,3036.00
2023-10-18T10:42:15.025Z,2996.00
2023-10-18T10:43:14.996Z,2984.00
2023-10-18T10:44:14.959Z,2908.00
2023-10-18T10:45:14.921Z,2936.00
2023-10-18T10:46:14.970Z,2912.00
2023-10-18T10:47:14.932Z,2916.00
2023-10-18T10:48:14.889Z,2892.00
2023-10-18T10:49:14.888Z,2872.00
2023-10-18T10:50:14.872Z,2976.00
2023-10-18T10:51:14.842Z,3052.00
2023-10-18T10:52:14.876Z,3064.00
2023-10-18T10:53:14.820Z,3068.00
2023-10-18T10:54:14.795Z,2924.00
2023-10-18T10:55:14.815Z,2976.00
2023-10-18T10:56:14.768Z,2912.00
2023-10-18T10:57:14.769Z,2868.00
2023-10-18T10:58:14.793Z,2948.00
2023-10-18T10:59:14.733Z,2980.00
2023-10-18T11:00:14.731Z,2904.00
2023-10-18T11:01:14.788Z,2936.00
2023-10-18T11:02:14.759Z,2920.00
2023-10-18T11:03:14.685Z,2928.00
2023-10-18T11:04:14.812Z,2912.00
2023-10-18T11:05:14.636Z,2884.00
2023-10-18T11:06:14.695Z,2880.00
2023-10-18T11:07:14.850Z,2948.00
2023-10-18T11:08:14.610Z,2992.00
2023-10-18T11:09:14.605Z,2968.00
2023-10-18T11:10:14.605Z,2956.00
2023-10-18T11:11:14.575Z,2916.00
2023-10-18T11:12:14.566Z,2848.00
2023-10-18T11:13:14.613Z,2820.00
2023-10-18T11:14:14.532Z,2868.00
2023-10-18T11:15:14.527Z,2908.00
2023-10-18T11:16:14.556Z,2948.00
2023-10-18T11:17:14.676Z,2836.00
2023-10-18T11:18:14.479Z,2808.00
2023-10-18T11:19:14.479Z,2796.00
2023-10-18T11:20:14.450Z,2696.00
2023-10-18T11:21:14.443Z,2680.00
2023-10-18T11:22:14.641Z,2740.00
2023-10-18T11:23:14.416Z,2680.00
2023-10-18T11:24:14.422Z,2560.00
2023-10-18T11:25:14.414Z,2620.00
2023-10-18T11:26:14.400Z,2580.00
2023-10-18T11:27:14.349Z,2480.00
2023-10-18T11:28:14.358Z,2456.00
2023-10-18T11:29:14.327Z,2428.00
2023-10-18T11:30:14.335Z,2380.00
2023-10-18T11:31:14.380Z,2340.00
2023-10-18T11:32:14.454Z,2328.00
2023-10-18T11:33:14.288Z,2380.00
2023-10-18T11:34:14.314Z,2404.00
2023-10-18T11:35:15.867Z,2420.00
2023-10-18T11:36:14.240Z,2472.00
2023-10-18T11:37:14.261Z,2532.00
2023-10-18T11:38:14.212Z,2552.00
2023-10-18T11:39:14.212Z,2528.00
2023-10-18T11:40:14.259Z,2588.00
2023-10-18T11:41:14.166Z,2604.00
2023-10-18T11:42:14.169Z,2628.00
2023-10-18T11:43:14.190Z,2552.00
2023-10-18T11:44:14.182Z,2516.00
2023-10-18T11:45:14.111Z,2444.00
2023-10-18T11:46:14.173Z,2524.00
2023-10-18T11:47:14.085Z,2568.00
2023-10-18T11:48:14.135Z,2460.00
2023-10-18T11:49:14.112Z,2420.00
2023-10-18T11:50:14.059Z,2428.00
2023-10-18T11:51:14.077Z,2348.00
2023-10-18T11:52:14.072Z,2300.00
2023-10-18T11:53:14.415Z,2276.00
2023-10-18T11:54:14.054Z,2288.00
2023-10-18T11:55:14.058Z,2268.00
2023-10-18T11:56:13.972Z,2340.00
2023-10-18T11:57:13.950Z,2300.00
2023-10-18T11:58:14.020Z,2232.00
2023-10-18T11:59:13.948Z,2280.00
2023-10-18T12:00:13.935Z,2272.00
2023-10-18T12:01:14.031Z,2276.00
2023-10-18T12:02:14.053Z,2244.00
2023-10-18T12:03:14.044Z,2188.00
2023-10-18T12:04:14.029Z,2084.00
2023-10-18T12:05:13.936Z,2080.00
2023-10-18T12:06:13.832Z,2164.00
2023-10-18T12:07:13.842Z,2164.00
2023-10-18T12:08:13.948Z,2180.00
2023-10-18T12:09:13.802Z,2156.00
2023-10-18T12:10:13.820Z,2116.00
2023-10-18T12:11:13.770Z,2048.00
2023-10-18T12:12:13.777Z,1976.00
2023-10-18T12:13:13.904Z,1888.00
2023-10-18T12:14:13.748Z,1876.00
2023-10-18T12:15:13.716Z,1864.00
2023-10-18T12:16:13.812Z,1880.00
2023-10-18T12:17:13.709Z,1832.00
2023-10-18T12:18:13.789Z,1868.00
2023-10-18T12:19:13.697Z,1864.00
2023-10-18T12:20:13.664Z,1856.00
2023-10-18T12:21:13.648Z,1784.00
2023-10-18T12:22:13.647Z,1748.00
2023-10-18T12:23:16.144Z,1688.00
2023-10-18T12:24:13.967Z,1692.00
2023-10-18T12:25:13.662Z,1668.00
2023-10-18T12:26:13.571Z,1648.00
2023-10-18T12:27:13.576Z,1656.00
2023-10-18T12:28:13.624Z,1676.00
2023-10-18T12:29:13.521Z,1672.00
2023-10-18T12:30:28.429Z,1620.00
2023-10-18T12:31:14.643Z,1664.00
2023-10-18T12:32:13.607Z,1668.00
2023-10-18T12:33:13.498Z,1660.00
2023-10-18T12:34:13.473Z,1744.00